ADDS METAR Data INFO
IDs: Format: Raw Decoded Include TAF

Data at: 1323 UTC 11 Dec 2017

KHSE 111251Z AUTO 28008KT 10SM CLR 08/01 A3016 RMK AO2 SLP213 T00780006 TSNO
KHSE 111151Z AUTO 27006KT 10SM CLR 06/02 A3016 RMK AO2 SLP213 T00610017 10072 20056 53008 TSNO
KHSE 111051Z AUTO 27007KT 10SM CLR 07/01 A3014 RMK AO2 SLP207 T00670006 TSNO
KHSE 110951Z AUTO 27007G16KT 10SM CLR 07/01 A3013 RMK AO2 SLP204 T00720006 TSNO
KHSE 110851Z AUTO 28008G15KT 10SM CLR 07/00 A3014 RMK AO2 SLP205 T00670000 58013 TSNO
KHSE 110751Z AUTO 27007KT 10SM CLR 06/00 A3016 RMK AO2 SLP213 T00610000 TSNO
KHSE 110651Z AUTO 26008KT 10SM CLR 06/M01 A3016 RMK AO2 SLP214 T00561011 TSNO
KHSE 110551Z AUTO 26008KT 10SM CLR 06/M02 A3018 RMK AO2 SLP218 T00561017 10056 20044 58004 TSNO
KHSE 110451Z AUTO 25007KT 10SM CLR 05/M01 A3019 RMK AO2 SLP221 T00501011 400720039 TSNO
KHSE 110351Z AUTO 25006KT 10SM CLR 05/M01 A3019 RMK AO2 SLP223 T00501006 TSNO
KHSE 110251Z AUTO 26006KT 10SM CLR 05/M01 A3019 RMK AO2 SLP222 T00501006 51004 TSNO
KHSE 110151Z AUTO 27004KT 10SM CLR 05/M01 A3019 RMK AO2 SLP222 T00501006 TSNO
KHSE 110051Z AUTO 25005KT 10SM CLR 04/M01 A3019 RMK AO2 SLP223 T00441006 TSNO
KHSE 102351Z AUTO 27006KT 10SM CLR 04/M01 A3018 RMK AO2 SLP218 T00441011 10072 20039 51014 TSNO
KHSE 102251Z AUTO 28006KT 10SM CLR 04/M02 A3017 RMK AO2 SLP215 T00441017 TSNO
KHSE 102151Z AUTO 27004KT 10SM CLR 04/M02 A3016 RMK AO2 SLP212 T00441022 TSNO
KHSE 102051Z AUTO 29004KT 10SM CLR 06/M03 A3014 RMK AO2 SLP205 T00611028 55000 TSNO
KHSE 101951Z AUTO VRB05KT 10SM CLR 07/M02 A3014 RMK AO2 SLP205 T00721022 TSNO
KHSE 101851Z AUTO 30009KT 10SM CLR 07/M03 A3013 RMK AO2 SLP202 T00721028 TSNO
KHSE 101751Z AUTO 32007KT 280V350 10SM CLR 07/M02 A3014 RMK AO2 SLP205 T00671017 10067 20039 58001 TSNO
KHSE 101651Z AUTO 31009G16KT 10SM CLR 07/M01 A3015 RMK AO2 SLP210 T00671006 TSNO
KHSE 101551Z AUTO 32009G15KT 10SM CLR 06/M01 A3015 RMK AO2 SLP209 T00611011 TSNO
KHSE 101451Z AUTO 32011G21KT 300V010 10SM CLR 06/M01 A3014 RMK AO2 SLP206 T00561011 51026 TSNO
KHSE 101351Z AUTO 32010G20KT 10SM CLR 05/M01 A3012 RMK AO2 SLP200 T00501006 TSNO
KHSE 101251Z AUTO 31012G20KT 10SM CLR 04/00 A3009 RMK AO2 SLP189 T00440000 TSNO
KHSE 101151Z AUTO 31010G21KT 10SM FEW023 04/00 A3006 RMK AO2 SLP180 70028 T00440000 10050 20039 51029 TSNO
KHSE 101126Z AUTO 31010G17KT 10SM SCT021 04/01 A3005 RMK AO2 T00390006 TSNO
KHSE 101051Z AUTO 30011G20KT 10SM OVC023 04/01 A3004 RMK AO2 SLP171 T00440011 TSNO
KHSE 100951Z AUTO 30012G22KT 10SM BKN024 04/01 A3001 RMK AO2 SLP160 T00440006 TSNO
KHSE 100851Z AUTO 30012G21KT 10SM BKN024 04/01 A2998 RMK AO2 SLP151 T00440011 50011 TSNO
KHSE 100848Z AUTO 30012G21KT 10SM BKN024 04/01 A2998 RMK AO2 TSNO
KHSE 100834Z AUTO 30011G21KT 10SM FEW016 SCT022 SCT028 04/01 A2998 RMK AO2 T00440006 TSNO
KHSE 100751Z AUTO 30009G17KT 10SM FEW013 BKN018 OVC033 05/03 A2996 RMK AO2 SLP146 T00500028 TSNO
KHSE 100734Z AUTO 29010G17KT 10SM BKN015 BKN022 OVC060 05/03 A2996 RMK AO2 T00500028 TSNO
KHSE 100723Z AUTO 29011G21KT 10SM FEW015 BKN036 OVC060 05/03 A2995 RMK AO2 T00500028 TSNO
KHSE 100651Z AUTO 29011G18KT 10SM BKN016 BKN022 OVC060 05/03 A2994 RMK AO2 SLP140 T00500033 TSNO
KHSE 100614Z AUTO 30012G22KT 10SM BKN014 BKN019 OVC048 05/03 A2994 RMK AO2 T00500033 TSNO
KHSE 100601Z AUTO 30015G24KT 10SM SCT012 BKN019 OVC046 05/03 A2993 RMK AO2 T00500033 TSNO
KHSE 100551Z AUTO 30011G19KT 10SM BKN013 BKN021 OVC044 05/03 A2993 RMK AO2 SLP134 60000 T00500033 10056 20044 51017 TSNO
KHSE 100451Z AUTO 30012G21KT 10SM BKN010 OVC035 04/03 A2992 RMK AO2 CIG 008V014 SLP132 T00440033 401170044 TSNO
KHSE 100434Z AUTO 30014G21KT 10SM OVC010 05/04 A2991 RMK AO2 CIG 009V014 T00500039 TSNO
KHSE 100351Z AUTO 28008KT 10SM OVC008 04/04 A2989 RMK AO2 SLP122 T00440039 TSNO
KHSE 100333Z AUTO 29009G17KT 10SM OVC009 04/04 A2989 RMK AO2 T00440039 TSNO
KHSE 100320Z AUTO 30008KT 10SM OVC010 04/04 A2988 RMK AO2 T00440039 TSNO
KHSE 100251Z AUTO 30009G17KT 10SM BKN009 OVC013 05/04 A2988 RMK AO2 SLP117 60000 T00500039 51029 TSNO
KHSE 100151Z AUTO 30010G17KT 10SM OVC013 04/04 A2986 RMK AO2 RAB0054E03 SLP111 P0000 T00440039 TSNO